createdAt,value
2023-03-29T00:03:34.359Z,9.52
2023-03-29T00:06:06.198Z,9.00
2023-03-29T00:08:34.519Z,9.52
2023-03-29T00:11:33.400Z,8.35
2023-03-29T00:14:47.237Z,9.98
2023-03-29T00:17:21.874Z,8.57
2023-03-29T00:19:49.881Z,8.80
2023-03-29T00:22:17.951Z,7.18
2023-03-29T00:24:48.268Z,9.25
2023-03-29T00:27:16.955Z,5.97
2023-03-29T00:29:45.007Z,7.95
2023-03-29T00:32:13.484Z,6.97
2023-03-29T00:34:43.140Z,6.88
2023-03-29T00:37:12.686Z,9.32
2023-03-29T00:39:42.423Z,9.95
2023-03-29T00:42:15.630Z,7.57
2023-03-29T00:45:23.945Z,6.30
2023-03-29T00:48:03.907Z,8.90
2023-03-29T00:50:40.791Z,6.80
2023-03-29T00:53:27.579Z,4.97
2023-03-29T00:56:12.257Z,6.32
2023-03-29T00:58:44.605Z,5.25
2023-03-29T01:01:17.829Z,5.97
2023-03-29T01:03:54.876Z,3.85
2023-03-29T01:06:29.525Z,5.07
2023-03-29T01:09:09.799Z,4.47
2023-03-29T01:11:48.430Z,5.97
2023-03-29T01:14:30.113Z,6.50
2023-03-29T01:16:58.396Z,3.85
2023-03-29T01:19:32.361Z,4.93
2023-03-29T01:22:08.067Z,4.88
2023-03-29T01:24:42.266Z,4.50
2023-03-29T01:27:35.084Z,5.50
2023-03-29T01:30:10.678Z,6.30
2023-03-29T01:32:57.231Z,5.28
2023-03-29T01:35:40.099Z,6.70
2023-03-29T01:38:20.880Z,5.55
2023-03-29T01:40:48.659Z,6.32
2023-03-29T01:43:26.284Z,5.60
2023-03-29T01:46:19.370Z,4.20
2023-03-29T01:48:57.090Z,4.60
2023-03-29T01:51:42.780Z,3.47
2023-03-29T01:54:16.965Z,4.47
2023-03-29T01:56:49.248Z,5.80
2023-03-29T01:59:28.678Z,4.47
2023-03-29T02:02:00.974Z,3.53
2023-03-29T02:04:38.717Z,6.78
2023-03-29T02:07:09.079Z,6.43
2023-03-29T02:09:39.032Z,3.20
2023-03-29T02:15:30.116Z,5.07
2023-03-29T02:17:58.163Z,5.25
2023-03-29T02:20:30.506Z,5.63
2023-03-29T02:23:14.689Z,3.83
2023-03-29T02:25:45.916Z,4.15
2023-03-29T02:28:14.501Z,5.55
2023-03-29T02:30:57.643Z,4.22
2023-03-29T02:33:37.173Z,5.25
2023-03-29T02:36:15.023Z,5.05
2023-03-29T02:38:42.890Z,4.35
2023-03-29T02:41:11.219Z,4.75
2023-03-29T02:43:41.048Z,5.70
2023-03-29T02:46:11.287Z,5.10
2023-03-29T02:48:39.924Z,4.45
2023-03-29T02:51:20.772Z,4.22
2023-03-29T02:53:57.460Z,3.75
2023-03-29T02:56:25.240Z,4.22
2023-03-29T02:58:53.130Z,4.32
2023-03-29T03:01:21.332Z,4.03
2023-03-29T03:03:50.978Z,6.78
2023-03-29T03:06:19.593Z,4.43
2023-03-29T03:08:47.679Z,5.00
2023-03-29T03:11:15.629Z,3.92
2023-03-29T03:13:43.400Z,5.20
2023-03-29T03:16:11.226Z,3.55
2023-03-29T03:18:39.375Z,3.80
2023-03-29T03:21:07.472Z,4.82
2023-03-29T03:23:35.806Z,4.53
2023-03-29T03:26:03.781Z,5.72
2023-03-29T03:28:33.590Z,4.40
2023-03-29T03:31:04.555Z,5.47
2023-03-29T03:33:55.547Z,3.88
2023-03-29T03:36:43.438Z,4.75
2023-03-29T03:39:13.321Z,4.38
2023-03-29T03:41:47.581Z,5.18
2023-03-29T03:44:17.488Z,4.82
2023-03-29T03:46:48.317Z,3.25
2023-03-29T03:49:16.806Z,4.90
2023-03-29T03:51:45.711Z,5.28
2023-03-29T03:54:14.438Z,3.50
2023-03-29T03:59:45.355Z,4.65
2023-03-29T04:02:18.227Z,4.63
2023-03-29T04:04:46.568Z,3.78
2023-03-29T04:07:18.913Z,4.03
2023-03-29T04:10:06.516Z,4.47
2023-03-29T04:12:37.703Z,4.88
2023-03-29T04:15:08.029Z,4.57
2023-03-29T04:17:42.646Z,3.80
2023-03-29T04:29:22.127Z,4.00
2023-03-29T04:31:56.779Z,4.85
2023-03-29T04:34:53.841Z,7.07
2023-03-29T04:37:22.609Z,6.40
2023-03-29T04:39:54.451Z,4.82
2023-03-29T04:42:23.590Z,5.22
2023-03-29T04:44:51.907Z,5.03
2023-03-29T04:47:31.546Z,5.43
2023-03-29T04:50:09.946Z,3.80
2023-03-29T04:52:42.958Z,4.85
2023-03-29T04:55:12.035Z,4.00
2023-03-29T04:57:49.461Z,3.90
2023-03-29T05:00:27.363Z,5.18
2023-03-29T05:03:14.833Z,4.32
2023-03-29T05:05:52.032Z,7.30
2023-03-29T05:08:20.181Z,8.18
2023-03-29T05:11:10.628Z,7.93
2023-03-29T05:13:38.892Z,7.30
2023-03-29T05:16:13.522Z,6.13
2023-03-29T05:18:42.100Z,7.75
2023-03-29T05:21:11.369Z,5.72
2023-03-29T05:23:42.333Z,9.88
2023-03-29T05:26:29.919Z,8.55
2023-03-29T05:28:58.760Z,7.93
2023-03-29T05:31:28.507Z,7.68
2023-03-29T05:34:32.196Z,6.15
2023-03-29T05:37:03.106Z,5.95
2023-03-29T05:40:13.972Z,8.00
2023-03-29T05:43:38.660Z,7.55
2023-03-29T05:46:28.454Z,7.47
2023-03-29T05:49:02.886Z,9.93
2023-03-29T05:51:49.825Z,7.20
2023-03-29T05:54:40.211Z,7.65
2023-03-29T05:57:33.919Z,6.55
2023-03-29T06:00:32.196Z,7.55
2023-03-29T06:03:21.667Z,9.25
2023-03-29T06:06:00.707Z,8.33
2023-03-29T06:08:45.141Z,6.22
2023-03-29T06:11:24.523Z,9.88
2023-03-29T06:15:10.255Z,7.55
2023-03-29T06:18:04.950Z,9.45
2023-03-29T06:20:39.280Z,10.05
2023-03-29T06:23:13.900Z,7.00
2023-03-29T06:25:45.212Z,11.00
2023-03-29T06:28:34.023Z,10.10
2023-03-29T06:31:10.614Z,9.27
2023-03-29T06:34:00.060Z,8.70
2023-03-29T06:37:07.750Z,9.90
2023-03-29T06:40:23.233Z,9.20
2023-03-29T06:42:58.191Z,12.77
2023-03-29T06:45:38.963Z,7.60
2023-03-29T06:48:44.032Z,9.40
2023-03-29T06:51:15.097Z,9.57
2023-03-29T06:53:44.864Z,8.70
2023-03-29T06:56:18.139Z,7.82
2023-03-29T06:59:03.216Z,8.20
2023-03-29T07:02:02.263Z,13.75
2023-03-29T07:04:52.793Z,10.75
2023-03-29T07:07:37.899Z,7.60
2023-03-29T07:10:28.892Z,7.93
2023-03-29T07:13:30.888Z,6.75
2023-03-29T07:16:02.234Z,6.80
2023-03-29T07:19:12.448Z,9.77
2023-03-29T07:21:54.040Z,10.27
2023-03-29T07:24:56.932Z,10.30
2023-03-29T07:27:55.130Z,8.02
2023-03-29T07:30:42.750Z,8.05
2023-03-29T07:33:49.943Z,7.28
2023-03-29T07:36:47.916Z,6.63
2023-03-29T07:39:37.682Z,6.35
2023-03-29T07:43:31.216Z,5.93
2023-03-29T07:46:25.932Z,5.80
2023-03-29T07:49:20.370Z,7.53
2023-03-29T07:52:09.272Z,6.72
2023-03-29T07:54:59.302Z,5.63
2023-03-29T07:58:10.000Z,7.75
2023-03-29T08:01:20.539Z,6.85
2023-03-29T08:04:23.962Z,4.05
2023-03-29T08:07:42.047Z,4.80
2023-03-29T08:10:24.116Z,6.40
2023-03-29T08:13:23.856Z,4.68
2023-03-29T08:16:15.459Z,6.60
2023-03-29T08:19:20.737Z,4.70
2023-03-29T08:22:18.922Z,9.30
2023-03-29T08:25:11.279Z,6.53
2023-03-29T08:28:02.519Z,4.22
2023-03-29T08:30:51.730Z,4.32
2023-03-29T08:33:22.572Z,3.70
2023-03-29T08:36:21.369Z,3.25
2023-03-29T08:38:51.983Z,3.88
2023-03-29T08:41:46.873Z,6.32
2023-03-29T08:44:34.082Z,5.93
2023-03-29T08:47:42.914Z,4.13
2023-03-29T08:50:39.980Z,4.72
2023-03-29T08:53:45.785Z,5.78
2023-03-29T08:56:53.913Z,6.35
2023-03-29T08:59:33.761Z,4.30
2023-03-29T09:02:28.964Z,4.05
2023-03-29T09:05:28.806Z,6.30
2023-03-29T09:08:24.300Z,7.32
2023-03-29T09:11:26.829Z,4.93
2023-03-29T09:15:20.581Z,5.85
2023-03-29T09:18:33.183Z,5.78
2023-03-29T09:21:35.616Z,8.68
2023-03-29T09:24:28.712Z,10.65
2023-03-29T09:27:39.942Z,3.88
2023-03-29T09:30:26.633Z,8.63
2023-03-29T09:33:43.795Z,4.65
2023-03-29T09:37:02.262Z,4.95
2023-03-29T09:39:53.754Z,3.15
2023-03-29T09:42:46.513Z,2.90
2023-03-29T09:45:30.150Z,3.05
2023-03-29T09:48:32.413Z,2.90
2023-03-29T09:51:28.145Z,3.67
2023-03-29T09:54:17.820Z,4.90
2023-03-29T09:57:18.664Z,2.85
2023-03-29T10:00:11.232Z,4.03
2023-03-29T10:03:00.668Z,3.22
2023-03-29T10:05:51.585Z,4.93
2023-03-29T10:08:52.744Z,4.05
2023-03-29T10:11:49.900Z,3.28
2023-03-29T10:14:53.593Z,3.35
2023-03-29T10:17:42.130Z,3.17
2023-03-29T10:20:35.149Z,3.42
2023-03-29T10:23:24.726Z,4.28
2023-03-29T10:26:35.041Z,4.05
2023-03-29T10:29:28.293Z,3.88
2023-03-29T10:32:36.685Z,3.70
2023-03-29T10:35:28.931Z,3.17
2023-03-29T10:38:21.849Z,3.72
2023-03-29T10:41:14.218Z,3.33
2023-03-29T10:44:27.114Z,4.90
2023-03-29T10:47:21.301Z,6.38
2023-03-29T10:50:16.057Z,4.13
2023-03-29T10:53:13.657Z,12.80
2023-03-29T10:56:20.980Z,13.00
2023-03-29T10:59:35.133Z,8.27
2023-03-29T11:02:56.828Z,7.88
2023-03-29T11:05:52.674Z,6.03
2023-03-29T11:08:51.188Z,5.00
2023-03-29T11:11:56.183Z,7.07
2023-03-29T11:15:21.434Z,5.35
2023-03-29T11:18:29.289Z,7.72
2023-03-29T11:21:54.201Z,6.20
2023-03-29T11:28:56.098Z,8.50
2023-03-29T11:32:00.890Z,8.88
2023-03-29T11:34:51.309Z,6.65
2023-03-29T11:38:06.103Z,7.57
2023-03-29T11:41:02.594Z,10.45
2023-03-29T11:43:55.481Z,7.78
2023-03-29T11:46:48.661Z,10.13
2023-03-29T11:49:34.210Z,4.72
2023-03-29T11:52:37.190Z,6.00
2023-03-29T11:55:28.417Z,7.10
2023-03-29T11:58:27.245Z,10.77
2023-03-29T12:01:47.372Z,9.40
2023-03-29T12:05:01.771Z,8.50
2023-03-29T12:08:33.921Z,6.05
2023-03-29T12:11:23.144Z,8.63
2023-03-29T12:14:33.864Z,8.25
2023-03-29T12:17:25.069Z,8.07
2023-03-29T12:20:31.960Z,11.32
2023-03-29T12:23:22.028Z,10.73
2023-03-29T12:26:17.679Z,11.15
2023-03-29T12:29:27.291Z,8.88
2023-03-29T12:32:20.087Z,6.75
2023-03-29T12:35:35.668Z,12.85
2023-03-29T12:38:30.844Z,14.82
2023-03-29T12:41:38.467Z,12.70
2023-03-29T12:44:34.569Z,6.63
2023-03-29T12:47:27.229Z,8.52
2023-03-29T12:50:23.843Z,8.35
2023-03-29T12:52:52.526Z,15.07
2023-03-29T12:55:43.998Z,10.25
2023-03-29T12:58:41.888Z,13.95
2023-03-29T13:01:27.974Z,17.10
2023-03-29T13:04:22.539Z,15.10
2023-03-29T13:07:03.501Z,15.48
2023-03-29T13:09:57.221Z,8.50
2023-03-29T13:12:47.630Z,9.93
2023-03-29T13:15:37.943Z,20.08
2023-03-29T13:19:07.201Z,20.38
2023-03-29T13:22:10.984Z,15.30
2023-03-29T13:25:06.629Z,13.45
2023-03-29T13:28:30.983Z,14.70
2023-03-29T13:31:38.736Z,14.18
2023-03-29T13:35:13.448Z,9.65
2023-03-29T13:38:19.643Z,10.90
2023-03-29T13:41:07.978Z,10.52
2023-03-29T13:43:58.343Z,8.75
2023-03-29T13:46:48.827Z,12.60
2023-03-29T13:49:33.048Z,15.50
2023-03-29T13:52:40.165Z,12.32
2023-03-29T13:55:39.392Z,12.13
2023-03-29T13:59:08.792Z,9.40
2023-03-29T14:02:01.078Z,11.60
2023-03-29T14:05:00.185Z,6.38
2023-03-29T14:07:51.798Z,8.27
2023-03-29T14:11:22.007Z,10.43
2023-03-29T14:17:25.317Z,10.63
2023-03-29T14:20:55.836Z,12.73
2023-03-29T14:23:55.331Z,19.63
2023-03-29T14:26:48.203Z,14.30
2023-03-29T14:29:37.316Z,18.58
2023-03-29T14:32:37.269Z,9.32
2023-03-29T14:35:35.060Z,10.20
2023-03-29T14:38:11.202Z,9.88
2023-03-29T14:40:56.382Z,11.90
2023-03-29T14:44:04.368Z,13.35
2023-03-29T14:46:55.156Z,10.20
2023-03-29T14:49:41.230Z,11.23
2023-03-29T14:52:32.324Z,13.13
2023-03-29T14:55:25.503Z,11.50
2023-03-29T14:58:27.461Z,12.13
2023-03-29T15:01:22.484Z,16.65
2023-03-29T15:07:35.090Z,10.25
2023-03-29T15:10:25.897Z,10.23
2023-03-29T15:13:33.654Z,14.05
2023-03-29T15:17:15.546Z,11.68
2023-03-29T15:20:16.614Z,11.63
2023-03-29T15:23:33.316Z,11.88
2023-03-29T15:26:30.570Z,11.63
2023-03-29T15:33:09.681Z,9.75
2023-03-29T15:36:49.410Z,12.43
2023-03-29T15:39:58.416Z,7.72
2023-03-29T15:42:55.524Z,11.30
2023-03-29T15:45:54.748Z,8.98
2023-03-29T15:48:34.078Z,8.55
2023-03-29T15:51:49.599Z,9.63
2023-03-29T15:54:39.759Z,12.48
2023-03-29T15:57:23.474Z,8.32
2023-03-29T15:59:59.198Z,19.20
2023-03-29T16:02:57.217Z,10.32
2023-03-29T16:05:45.336Z,13.07
2023-03-29T16:08:50.914Z,12.38
2023-03-29T16:12:19.202Z,12.07
2023-03-29T16:15:05.443Z,15.52
2023-03-29T16:17:46.518Z,11.77
2023-03-29T16:20:38.818Z,10.43
2023-03-29T16:23:27.247Z,8.52
2023-03-29T16:26:12.416Z,9.52
2023-03-29T16:29:08.726Z,7.53
2023-03-29T16:32:28.320Z,7.93
2023-03-29T16:35:28.972Z,8.60
2023-03-29T16:38:47.773Z,7.70
2023-03-29T16:41:37.502Z,8.80
2023-03-29T16:44:30.204Z,11.50
2023-03-29T16:47:15.972Z,9.85
2023-03-29T16:50:21.188Z,9.00
2023-03-29T16:53:11.329Z,9.45
2023-03-29T16:55:43.265Z,10.13
2023-03-29T16:58:54.420Z,10.93
2023-03-29T17:01:37.772Z,10.35
2023-03-29T17:07:39.627Z,11.90
2023-03-29T17:10:15.282Z,13.30
2023-03-29T17:13:53.403Z,12.60
2023-03-29T17:16:44.373Z,9.35
2023-03-29T17:19:16.835Z,7.10
2023-03-29T17:21:57.706Z,7.55
2023-03-29T17:24:40.827Z,6.88
2023-03-29T17:28:01.455Z,7.05
2023-03-29T17:31:13.733Z,6.70
2023-03-29T17:33:57.628Z,7.20
2023-03-29T17:36:57.749Z,6.20
2023-03-29T17:39:37.865Z,7.80
2023-03-29T17:42:28.423Z,5.90
2023-03-29T17:45:06.872Z,11.02
2023-03-29T17:48:21.308Z,13.70
2023-03-29T17:54:25.218Z,7.18
2023-03-29T17:57:00.972Z,10.57
2023-03-29T18:00:06.863Z,11.18
2023-03-29T18:10:02.534Z,6.18
2023-03-29T18:13:03.002Z,6.15
2023-03-29T18:16:22.477Z,5.70
2023-03-29T18:22:29.043Z,6.15
2023-03-29T18:25:08.091Z,5.30
2023-03-29T18:27:54.089Z,6.18
2023-03-29T18:30:26.601Z,6.05
2023-03-29T18:33:09.753Z,5.65
2023-03-29T18:35:41.474Z,6.07
2023-03-29T18:38:11.323Z,6.63
2023-03-29T18:41:04.879Z,6.10
2023-03-29T18:43:42.272Z,6.38
2023-03-29T18:46:26.171Z,4.88
2023-03-29T18:49:01.457Z,7.28
2023-03-29T18:52:06.139Z,5.30
2023-03-29T18:55:24.695Z,7.85
2023-03-29T18:58:52.641Z,6.63
2023-03-29T19:01:24.476Z,6.07
2023-03-29T19:03:52.640Z,5.88
2023-03-29T19:07:06.618Z,6.53
2023-03-29T19:09:38.132Z,7.45
2023-03-29T19:12:16.483Z,5.65
2023-03-29T19:15:28.850Z,6.70
2023-03-29T19:18:11.102Z,7.80
2023-03-29T19:20:44.322Z,8.73
2023-03-29T19:23:13.531Z,6.18
2023-03-29T19:25:58.740Z,7.15
2023-03-29T19:28:46.445Z,8.60
2023-03-29T19:31:14.690Z,8.90
2023-03-29T19:37:21.439Z,7.20
2023-03-29T19:39:49.509Z,7.70
2023-03-29T19:42:23.189Z,7.03
2023-03-29T19:45:04.272Z,5.30
2023-03-29T19:47:54.316Z,7.20
2023-03-29T19:51:09.985Z,6.60
2023-03-29T19:53:59.371Z,6.30
2023-03-29T19:57:12.574Z,4.35
2023-03-29T20:00:18.177Z,9.45
2023-03-29T20:03:25.236Z,6.63
2023-03-29T20:07:06.681Z,7.18
2023-03-29T20:10:02.165Z,8.80
2023-03-29T20:12:51.316Z,8.27
2023-03-29T20:15:57.873Z,6.93
2023-03-29T20:19:21.764Z,6.35
2023-03-29T20:25:33.133Z,6.97
2023-03-29T20:29:00.813Z,7.97
2023-03-29T20:32:03.747Z,5.63
2023-03-29T20:34:55.214Z,6.45
2023-03-29T20:38:28.507Z,5.63
2023-03-29T20:41:39.718Z,7.80
2023-03-29T20:44:49.807Z,7.80
2023-03-29T20:47:58.131Z,7.38
2023-03-29T20:51:03.216Z,8.35
2023-03-29T20:54:04.078Z,6.47
2023-03-29T20:56:59.046Z,5.03
2023-03-29T21:00:00.564Z,7.47
2023-03-29T21:03:13.370Z,6.57
2023-03-29T21:06:34.835Z,7.35
2023-03-29T21:09:59.715Z,7.18
2023-03-29T21:13:21.842Z,5.95
2023-03-29T21:17:15.221Z,6.65
2023-03-29T21:20:34.713Z,8.48
2023-03-29T21:24:00.441Z,4.93
2023-03-29T21:27:38.397Z,5.70
2023-03-29T21:31:00.975Z,6.60
2023-03-29T21:37:21.763Z,4.63
2023-03-29T21:41:32.441Z,5.65
2023-03-29T21:44:10.332Z,5.18
2023-03-29T21:47:26.789Z,4.05
2023-03-29T21:50:21.159Z,5.20
2023-03-29T21:54:04.224Z,4.63
2023-03-29T21:56:38.944Z,4.47
2023-03-29T21:59:19.241Z,6.18
2023-03-29T22:21:45.439Z,11.85
2023-03-29T22:27:55.215Z,9.10
2023-03-29T22:35:03.865Z,11.82
2023-03-29T22:38:51.222Z,9.18
2023-03-29T22:42:01.672Z,5.90
2023-03-29T22:48:24.605Z,6.35
2023-03-29T22:52:17.241Z,4.57
2023-03-29T22:55:40.707Z,7.25
2023-03-29T22:59:10.274Z,8.82
2023-03-29T23:01:41.930Z,7.70
2023-03-29T23:11:23.187Z,12.18
2023-03-29T23:13:59.722Z,12.77
2023-03-29T23:16:43.761Z,7.25
2023-03-29T23:20:06.503Z,7.43
2023-03-29T23:23:07.358Z,13.00
2023-03-29T23:25:35.890Z,7.35
2023-03-29T23:28:04.467Z,13.88
2023-03-29T23:30:58.268Z,9.05
2023-03-29T23:33:43.156Z,5.55
2023-03-29T23:37:28.325Z,6.85
2023-03-29T23:40:17.166Z,8.38
2023-03-29T23:43:19.928Z,7.85
2023-03-29T23:46:13.551Z,7.55
2023-03-29T23:49:17.267Z,8.40
2023-03-29T23:52:03.609Z,7.28
2023-03-29T23:54:59.843Z,6.28
2023-03-29T23:57:44.773Z,6.57
